sensor_id;sensor_type;location;lat;lon;timestamp;P1;durP1;ratioP1;P2;durP2;ratioP2
50739;SDS011;36704;52.524;17.580;2023-09-19T00:01:15;11.20;;;7.13;;
50739;SDS011;36704;52.524;17.580;2023-09-19T00:04:05;8.13;;;5.68;;
50739;SDS011;36704;52.524;17.580;2023-09-19T00:06:56;11.82;;;7.00;;
50739;SDS011;36704;52.524;17.580;2023-09-19T00:09:42;9.07;;;5.28;;
50739;SDS011;36704;52.524;17.580;2023-09-19T00:12:30;9.65;;;5.72;;
50739;SDS011;36704;52.524;17.580;2023-09-19T00:15:15;8.73;;;6.25;;
50739;SDS011;36704;52.524;17.580;2023-09-19T00:18:03;6.03;;;4.93;;
50739;SDS011;36704;52.524;17.580;2023-09-19T00:20:52;8.50;;;5.15;;
50739;SDS011;36704;52.524;17.580;2023-09-19T00:23:38;8.73;;;5.38;;
50739;SDS011;36704;52.524;17.580;2023-09-19T00:26:26;12.57;;;5.35;;
50739;SDS011;36704;52.524;17.580;2023-09-19T00:29:15;7.73;;;5.20;;
50739;SDS011;36704;52.524;17.580;2023-09-19T00:32:02;6.38;;;4.85;;
50739;SDS011;36704;52.524;17.580;2023-09-19T00:34:50;7.28;;;5.20;;
50739;SDS011;36704;52.524;17.580;2023-09-19T00:37:35;9.60;;;4.82;;
50739;SDS011;36704;52.524;17.580;2023-09-19T00:40:22;7.45;;;5.25;;
50739;SDS011;36704;52.524;17.580;2023-09-19T00:43:08;6.97;;;4.53;;
50739;SDS011;36704;52.524;17.580;2023-09-19T00:45:55;7.05;;;4.80;;
50739;SDS011;36704;52.524;17.580;2023-09-19T00:48:41;9.32;;;4.68;;
50739;SDS011;36704;52.524;17.580;2023-09-19T00:51:31;6.70;;;4.07;;
50739;SDS011;36704;52.524;17.580;2023-09-19T00:54:16;8.35;;;4.22;;
50739;SDS011;36704;52.524;17.580;2023-09-19T00:57:04;6.53;;;4.22;;
50739;SDS011;36704;52.524;17.580;2023-09-19T00:59:50;9.77;;;4.13;;
50739;SDS011;36704;52.524;17.580;2023-09-19T01:02:37;7.97;;;4.03;;
50739;SDS011;36704;52.524;17.580;2023-09-19T01:05:23;6.20;;;4.13;;
50739;SDS011;36704;52.524;17.580;2023-09-19T01:08:09;5.70;;;4.30;;
50739;SDS011;36704;52.524;17.580;2023-09-19T01:14:09;6.90;;;3.70;;
50739;SDS011;36704;52.524;17.580;2023-09-19T01:17:16;6.55;;;4.13;;
50739;SDS011;36704;52.524;17.580;2023-09-19T01:20:15;7.45;;;3.80;;
50739;SDS011;36704;52.524;17.580;2023-09-19T01:29:44;8.27;;;4.53;;
50739;SDS011;36704;52.524;17.580;2023-09-19T01:32:32;7.70;;;3.90;;
50739;SDS011;36704;52.524;17.580;2023-09-19T01:35:18;7.07;;;4.97;;
50739;SDS011;36704;52.524;17.580;2023-09-19T01:38:05;5.72;;;4.22;;
50739;SDS011;36704;52.524;17.580;2023-09-19T01:41:03;7.28;;;4.70;;
50739;SDS011;36704;52.524;17.580;2023-09-19T01:43:52;6.97;;;4.82;;
50739;SDS011;36704;52.524;17.580;2023-09-19T01:46:39;9.02;;;4.68;;
50739;SDS011;36704;52.524;17.580;2023-09-19T01:52:24;8.60;;;4.38;;
50739;SDS011;36704;52.524;17.580;2023-09-19T01:55:14;6.78;;;3.95;;
50739;SDS011;36704;52.524;17.580;2023-09-19T02:01:00;6.57;;;3.97;;
50739;SDS011;36704;52.524;17.580;2023-09-19T02:03:47;7.97;;;3.83;;
50739;SDS011;36704;52.524;17.580;2023-09-19T02:06:35;5.18;;;3.72;;
50739;SDS011;36704;52.524;17.580;2023-09-19T02:09:21;5.07;;;3.90;;
50739;SDS011;36704;52.524;17.580;2023-09-19T02:12:07;5.90;;;3.15;;
50739;SDS011;36704;52.524;17.580;2023-09-19T02:14:55;7.35;;;3.50;;
50739;SDS011;36704;52.524;17.580;2023-09-19T02:17:43;4.32;;;3.10;;
50739;SDS011;36704;52.524;17.580;2023-09-19T02:20:29;7.05;;;3.15;;
50739;SDS011;36704;52.524;17.580;2023-09-19T02:23:16;5.75;;;3.00;;
50739;SDS011;36704;52.524;17.580;2023-09-19T02:26:02;6.55;;;3.50;;
50739;SDS011;36704;52.524;17.580;2023-09-19T02:28:50;7.28;;;3.53;;
50739;SDS011;36704;52.524;17.580;2023-09-19T02:31:36;6.43;;;3.83;;
50739;SDS011;36704;52.524;17.580;2023-09-19T02:34:22;9.15;;;3.72;;
50739;SDS011;36704;52.524;17.580;2023-09-19T02:37:08;7.80;;;3.53;;
50739;SDS011;36704;52.524;17.580;2023-09-19T02:39:54;5.47;;;3.90;;
50739;SDS011;36704;52.524;17.580;2023-09-19T02:42:42;5.20;;;3.40;;
50739;SDS011;36704;52.524;17.580;2023-09-19T02:45:28;5.63;;;3.45;;
50739;SDS011;36704;52.524;17.580;2023-09-19T02:48:16;5.50;;;3.08;;
50739;SDS011;36704;52.524;17.580;2023-09-19T02:51:02;7.95;;;3.67;;
50739;SDS011;36704;52.524;17.580;2023-09-19T02:53:51;5.18;;;3.13;;
50739;SDS011;36704;52.524;17.580;2023-09-19T02:56:38;6.72;;;4.88;;
50739;SDS011;36704;52.524;17.580;2023-09-19T02:59:24;7.07;;;4.30;;
50739;SDS011;36704;52.524;17.580;2023-09-19T03:02:11;6.88;;;4.15;;
50739;SDS011;36704;52.524;17.580;2023-09-19T03:04:58;6.20;;;4.60;;
50739;SDS011;36704;52.524;17.580;2023-09-19T03:07:47;6.20;;;4.00;;
50739;SDS011;36704;52.524;17.580;2023-09-19T03:10:37;6.43;;;3.78;;
50739;SDS011;36704;52.524;17.580;2023-09-19T03:13:24;6.00;;;3.60;;
50739;SDS011;36704;52.524;17.580;2023-09-19T03:16:10;5.43;;;4.22;;
50739;SDS011;36704;52.524;17.580;2023-09-19T03:18:56;5.10;;;3.50;;
50739;SDS011;36704;52.524;17.580;2023-09-19T03:21:43;5.50;;;3.20;;
50739;SDS011;36704;52.524;17.580;2023-09-19T03:24:30;6.90;;;3.95;;
50739;SDS011;36704;52.524;17.580;2023-09-19T03:27:18;6.10;;;3.47;;
50739;SDS011;36704;52.524;17.580;2023-09-19T03:30:04;5.35;;;3.88;;
50739;SDS011;36704;52.524;17.580;2023-09-19T03:32:53;4.05;;;3.42;;
50739;SDS011;36704;52.524;17.580;2023-09-19T03:35:39;8.13;;;4.50;;
50739;SDS011;36704;52.524;17.580;2023-09-19T03:38:25;6.03;;;4.22;;
50739;SDS011;36704;52.524;17.580;2023-09-19T03:41:13;5.80;;;4.03;;
50739;SDS011;36704;52.524;17.580;2023-09-19T03:44:02;7.13;;;3.78;;
50739;SDS011;36704;52.524;17.580;2023-09-19T03:46:50;6.10;;;4.00;;
50739;SDS011;36704;52.524;17.580;2023-09-19T03:49:36;7.60;;;4.18;;
50739;SDS011;36704;52.524;17.580;2023-09-19T03:52:23;6.43;;;3.60;;
50739;SDS011;36704;52.524;17.580;2023-09-19T03:55:11;4.65;;;3.78;;
50739;SDS011;36704;52.524;17.580;2023-09-19T03:57:58;5.25;;;3.60;;
50739;SDS011;36704;52.524;17.580;2023-09-19T04:00:44;5.95;;;3.45;;
50739;SDS011;36704;52.524;17.580;2023-09-19T04:03:30;4.85;;;3.20;;
50739;SDS011;36704;52.524;17.580;2023-09-19T04:06:37;4.13;;;3.10;;
50739;SDS011;36704;52.524;17.580;2023-09-19T04:09:23;5.82;;;3.42;;
50739;SDS011;36704;52.524;17.580;2023-09-19T04:12:09;5.53;;;3.58;;
50739;SDS011;36704;52.524;17.580;2023-09-19T04:14:55;3.88;;;3.10;;
50739;SDS011;36704;52.524;17.580;2023-09-19T04:17:41;5.95;;;3.67;;
50739;SDS011;36704;52.524;17.580;2023-09-19T04:20:27;5.55;;;3.42;;
50739;SDS011;36704;52.524;17.580;2023-09-19T04:23:13;7.53;;;3.55;;
50739;SDS011;36704;52.524;17.580;2023-09-19T04:25:59;5.88;;;3.15;;
50739;SDS011;36704;52.524;17.580;2023-09-19T04:28:45;5.85;;;3.08;;
50739;SDS011;36704;52.524;17.580;2023-09-19T04:31:32;5.88;;;3.90;;
50739;SDS011;36704;52.524;17.580;2023-09-19T04:34:18;4.07;;;3.22;;
50739;SDS011;36704;52.524;17.580;2023-09-19T04:37:04;4.90;;;2.67;;
50739;SDS011;36704;52.524;17.580;2023-09-19T04:39:53;5.78;;;2.60;;
50739;SDS011;36704;52.524;17.580;2023-09-19T04:42:40;4.43;;;3.00;;
50739;SDS011;36704;52.524;17.580;2023-09-19T04:45:28;5.13;;;2.90;;
50739;SDS011;36704;52.524;17.580;2023-09-19T04:48:15;5.03;;;2.58;;
50739;SDS011;36704;52.524;17.580;2023-09-19T04:51:01;3.42;;;2.47;;
50739;SDS011;36704;52.524;17.580;2023-09-19T04:53:47;4.75;;;2.55;;
50739;SDS011;36704;52.524;17.580;2023-09-19T04:56:41;4.30;;;2.50;;
50739;SDS011;36704;52.524;17.580;2023-09-19T04:59:28;4.43;;;2.83;;
50739;SDS011;36704;52.524;17.580;2023-09-19T05:02:14;4.88;;;2.85;;
50739;SDS011;36704;52.524;17.580;2023-09-19T05:05:01;5.72;;;2.42;;
50739;SDS011;36704;52.524;17.580;2023-09-19T05:07:47;5.88;;;3.95;;
50739;SDS011;36704;52.524;17.580;2023-09-19T05:10:40;7.10;;;3.30;;
50739;SDS011;36704;52.524;17.580;2023-09-19T05:13:26;3.83;;;2.72;;
50739;SDS011;36704;52.524;17.580;2023-09-19T05:16:13;5.50;;;2.72;;
50739;SDS011;36704;52.524;17.580;2023-09-19T05:18:59;4.70;;;2.90;;
50739;SDS011;36704;52.524;17.580;2023-09-19T05:21:48;7.32;;;3.13;;
50739;SDS011;36704;52.524;17.580;2023-09-19T05:24:34;4.32;;;2.63;;
50739;SDS011;36704;52.524;17.580;2023-09-19T05:27:20;5.40;;;2.42;;
50739;SDS011;36704;52.524;17.580;2023-09-19T05:30:06;7.60;;;3.28;;
50739;SDS011;36704;52.524;17.580;2023-09-19T05:32:53;4.78;;;2.38;;
50739;SDS011;36704;52.524;17.580;2023-09-19T05:35:40;5.72;;;3.15;;
50739;SDS011;36704;52.524;17.580;2023-09-19T05:38:27;4.57;;;2.85;;
50739;SDS011;36704;52.524;17.580;2023-09-19T05:41:13;12.75;;;3.70;;
50739;SDS011;36704;52.524;17.580;2023-09-19T05:44:03;4.13;;;2.80;;
50739;SDS011;36704;52.524;17.580;2023-09-19T05:46:50;3.92;;;2.72;;
50739;SDS011;36704;52.524;17.580;2023-09-19T05:49:37;5.90;;;3.28;;
50739;SDS011;36704;52.524;17.580;2023-09-19T05:52:26;6.10;;;3.15;;
50739;SDS011;36704;52.524;17.580;2023-09-19T05:55:12;4.70;;;3.00;;
50739;SDS011;36704;52.524;17.580;2023-09-19T05:57:58;6.75;;;3.20;;
50739;SDS011;36704;52.524;17.580;2023-09-19T06:00:45;5.60;;;2.88;;
50739;SDS011;36704;52.524;17.580;2023-09-19T06:03:34;5.05;;;3.25;;
50739;SDS011;36704;52.524;17.580;2023-09-19T06:06:21;4.75;;;3.47;;
50739;SDS011;36704;52.524;17.580;2023-09-19T06:09:09;5.22;;;3.55;;
50739;SDS011;36704;52.524;17.580;2023-09-19T06:11:56;5.75;;;3.10;;
50739;SDS011;36704;52.524;17.580;2023-09-19T06:14:43;6.85;;;3.50;;
50739;SDS011;36704;52.524;17.580;2023-09-19T06:17:28;5.47;;;4.30;;
50739;SDS011;36704;52.524;17.580;2023-09-19T06:20:17;6.38;;;4.00;;
50739;SDS011;36704;52.524;17.580;2023-09-19T06:23:04;7.57;;;4.88;;
50739;SDS011;36704;52.524;17.580;2023-09-19T06:25:50;5.60;;;4.10;;
50739;SDS011;36704;52.524;17.580;2023-09-19T06:28:37;6.28;;;4.47;;
50739;SDS011;36704;52.524;17.580;2023-09-19T06:31:24;7.15;;;4.10;;
50739;SDS011;36704;52.524;17.580;2023-09-19T06:34:19;9.20;;;4.35;;
50739;SDS011;36704;52.524;17.580;2023-09-19T06:37:06;6.18;;;3.97;;
50739;SDS011;36704;52.524;17.580;2023-09-19T06:39:52;6.90;;;4.57;;
50739;SDS011;36704;52.524;17.580;2023-09-19T06:42:38;5.70;;;4.03;;
50739;SDS011;36704;52.524;17.580;2023-09-19T06:45:25;4.68;;;3.30;;
50739;SDS011;36704;52.524;17.580;2023-09-19T06:48:13;4.55;;;3.00;;
50739;SDS011;36704;52.524;17.580;2023-09-19T06:51:00;4.70;;;3.28;;
50739;SDS011;36704;52.524;17.580;2023-09-19T06:53:52;5.75;;;4.00;;
50739;SDS011;36704;52.524;17.580;2023-09-19T06:56:40;6.38;;;3.78;;
50739;SDS011;36704;52.524;17.580;2023-09-19T06:59:27;4.72;;;2.90;;
50739;SDS011;36704;52.524;17.580;2023-09-19T07:02:14;7.78;;;3.50;;
50739;SDS011;36704;52.524;17.580;2023-09-19T07:05:00;7.00;;;3.25;;
50739;SDS011;36704;52.524;17.580;2023-09-19T07:07:46;5.07;;;2.95;;
50739;SDS011;36704;52.524;17.580;2023-09-19T07:10:33;6.43;;;3.55;;
50739;SDS011;36704;52.524;17.580;2023-09-19T07:13:20;5.85;;;3.45;;
50739;SDS011;36704;52.524;17.580;2023-09-19T07:16:06;5.55;;;2.75;;
50739;SDS011;36704;52.524;17.580;2023-09-19T07:18:55;5.45;;;2.95;;
50739;SDS011;36704;52.524;17.580;2023-09-19T07:21:42;6.03;;;2.67;;
50739;SDS011;36704;52.524;17.580;2023-09-19T07:24:28;5.65;;;2.58;;
50739;SDS011;36704;52.524;17.580;2023-09-19T07:27:14;6.95;;;3.10;;
50739;SDS011;36704;52.524;17.580;2023-09-19T07:30:00;4.97;;;2.85;;
50739;SDS011;36704;52.524;17.580;2023-09-19T07:32:48;3.38;;;2.55;;
50739;SDS011;36704;52.524;17.580;2023-09-19T07:35:34;5.60;;;2.42;;
50739;SDS011;36704;52.524;17.580;2023-09-19T07:38:20;5.65;;;2.63;;
50739;SDS011;36704;52.524;17.580;2023-09-19T07:41:07;5.32;;;2.72;;
50739;SDS011;36704;52.524;17.580;2023-09-19T07:43:54;3.55;;;2.60;;
50739;SDS011;36704;52.524;17.580;2023-09-19T07:46:41;6.53;;;2.03;;
50739;SDS011;36704;52.524;17.580;2023-09-19T07:49:27;6.13;;;2.53;;
50739;SDS011;36704;52.524;17.580;2023-09-19T07:52:13;7.18;;;2.72;;
50739;SDS011;36704;52.524;17.580;2023-09-19T07:54:59;5.50;;;2.50;;
50739;SDS011;36704;52.524;17.580;2023-09-19T07:57:47;4.13;;;2.30;;
50739;SDS011;36704;52.524;17.580;2023-09-19T08:00:33;3.80;;;2.33;;
50739;SDS011;36704;52.524;17.580;2023-09-19T08:03:21;5.47;;;2.15;;
50739;SDS011;36704;52.524;17.580;2023-09-19T08:06:07;3.20;;;2.10;;
50739;SDS011;36704;52.524;17.580;2023-09-19T08:08:53;5.32;;;2.25;;
50739;SDS011;36704;52.524;17.580;2023-09-19T08:11:40;4.95;;;2.63;;
50739;SDS011;36704;52.524;17.580;2023-09-19T08:14:27;2.50;;;2.20;;
50739;SDS011;36704;52.524;17.580;2023-09-19T08:17:14;5.68;;;2.58;;
50739;SDS011;36704;52.524;17.580;2023-09-19T08:20:01;7.28;;;2.30;;
50739;SDS011;36704;52.524;17.580;2023-09-19T08:22:51;5.60;;;2.08;;
50739;SDS011;36704;52.524;17.580;2023-09-19T08:25:41;2.63;;;1.80;;
50739;SDS011;36704;52.524;17.580;2023-09-19T08:28:27;6.15;;;2.22;;
50739;SDS011;36704;52.524;17.580;2023-09-19T08:31:15;2.60;;;1.80;;
50739;SDS011;36704;52.524;17.580;2023-09-19T08:34:02;3.47;;;1.75;;
50739;SDS011;36704;52.524;17.580;2023-09-19T08:36:48;5.30;;;1.88;;
50739;SDS011;36704;52.524;17.580;2023-09-19T08:39:36;4.38;;;2.05;;
50739;SDS011;36704;52.524;17.580;2023-09-19T08:42:22;3.85;;;1.63;;
50739;SDS011;36704;52.524;17.580;2023-09-19T08:45:13;4.00;;;1.90;;
50739;SDS011;36704;52.524;17.580;2023-09-19T08:48:07;4.95;;;1.90;;
50739;SDS011;36704;52.524;17.580;2023-09-19T08:51:03;4.65;;;1.50;;
50739;SDS011;36704;52.524;17.580;2023-09-19T08:54:19;2.75;;;1.65;;
50739;SDS011;36704;52.524;17.580;2023-09-19T08:57:10;3.88;;;1.60;;
50739;SDS011;36704;52.524;17.580;2023-09-19T08:59:57;4.22;;;1.90;;
50739;SDS011;36704;52.524;17.580;2023-09-19T09:02:48;2.78;;;1.80;;
50739;SDS011;36704;52.524;17.580;2023-09-19T09:05:38;5.60;;;1.77;;
50739;SDS011;36704;52.524;17.580;2023-09-19T09:08:28;4.85;;;1.85;;
50739;SDS011;36704;52.524;17.580;2023-09-19T09:11:19;3.70;;;1.52;;
50739;SDS011;36704;52.524;17.580;2023-09-19T09:14:06;3.20;;;1.70;;
50739;SDS011;36704;52.524;17.580;2023-09-19T09:16:55;3.30;;;1.50;;
50739;SDS011;36704;52.524;17.580;2023-09-19T09:19:44;3.00;;;1.40;;
50739;SDS011;36704;52.524;17.580;2023-09-19T09:22:31;4.53;;;1.58;;
50739;SDS011;36704;52.524;17.580;2023-09-19T09:25:18;5.55;;;1.60;;
50739;SDS011;36704;52.524;17.580;2023-09-19T09:28:04;3.05;;;1.33;;
50739;SDS011;36704;52.524;17.580;2023-09-19T09:30:50;3.70;;;1.55;;
50739;SDS011;36704;52.524;17.580;2023-09-19T09:33:37;5.00;;;1.40;;
50739;SDS011;36704;52.524;17.580;2023-09-19T09:36:36;6.32;;;1.73;;
50739;SDS011;36704;52.524;17.580;2023-09-19T09:39:29;5.35;;;1.65;;
50739;SDS011;36704;52.524;17.580;2023-09-19T09:45:24;2.95;;;1.17;;
50739;SDS011;36704;52.524;17.580;2023-09-19T09:48:23;3.40;;;1.70;;
50739;SDS011;36704;52.524;17.580;2023-09-19T09:51:29;4.65;;;1.77;;
50739;SDS011;36704;52.524;17.580;2023-09-19T09:54:16;4.68;;;1.75;;
50739;SDS011;36704;52.524;17.580;2023-09-19T09:57:08;3.58;;;1.70;;
50739;SDS011;36704;52.524;17.580;2023-09-19T10:00:06;3.00;;;1.50;;
50739;SDS011;36704;52.524;17.580;2023-09-19T10:02:58;3.38;;;1.65;;
50739;SDS011;36704;52.524;17.580;2023-09-19T10:05:53;3.67;;;1.40;;
50739;SDS011;36704;52.524;17.580;2023-09-19T10:08:42;4.18;;;1.95;;
50739;SDS011;36704;52.524;17.580;2023-09-19T10:12:00;4.38;;;1.50;;
50739;SDS011;36704;52.524;17.580;2023-09-19T10:14:50;6.18;;;1.90;;
50739;SDS011;36704;52.524;17.580;2023-09-19T10:17:36;2.72;;;1.30;;
50739;SDS011;36704;52.524;17.580;2023-09-19T10:20:24;4.63;;;1.40;;
50739;SDS011;36704;52.524;17.580;2023-09-19T10:23:19;4.82;;;1.77;;
50739;SDS011;36704;52.524;17.580;2023-09-19T10:26:17;4.57;;;1.80;;
50739;SDS011;36704;52.524;17.580;2023-09-19T10:29:03;4.70;;;1.67;;
50739;SDS011;36704;52.524;17.580;2023-09-19T10:31:54;4.35;;;1.65;;
50739;SDS011;36704;52.524;17.580;2023-09-19T10:34:45;3.97;;;1.45;;
50739;SDS011;36704;52.524;17.580;2023-09-19T10:37:34;4.30;;;1.60;;
50739;SDS011;36704;52.524;17.580;2023-09-19T10:40:23;8.13;;;1.75;;
50739;SDS011;36704;52.524;17.580;2023-09-19T10:43:19;4.07;;;1.67;;
50739;SDS011;36704;52.524;17.580;2023-09-19T10:46:09;4.72;;;1.80;;
50739;SDS011;36704;52.524;17.580;2023-09-19T10:49:01;6.03;;;1.60;;
50739;SDS011;36704;52.524;17.580;2023-09-19T10:57:28;4.15;;;1.50;;
50739;SDS011;36704;52.524;17.580;2023-09-19T11:00:14;3.65;;;1.33;;
50739;SDS011;36704;52.524;17.580;2023-09-19T11:09:01;4.80;;;1.73;;
50739;SDS011;36704;52.524;17.580;2023-09-19T11:12:01;3.90;;;1.63;;
50739;SDS011;36704;52.524;17.580;2023-09-19T11:14:47;3.88;;;1.52;;
50739;SDS011;36704;52.524;17.580;2023-09-19T11:17:37;3.92;;;1.88;;
50739;SDS011;36704;52.524;17.580;2023-09-19T11:20:26;3.92;;;2.00;;
50739;SDS011;36704;52.524;17.580;2023-09-19T11:23:25;4.95;;;1.67;;
50739;SDS011;36704;52.524;17.580;2023-09-19T11:26:32;3.70;;;1.90;;
50739;SDS011;36704;52.524;17.580;2023-09-19T11:29:33;5.30;;;1.73;;
50739;SDS011;36704;52.524;17.580;2023-09-19T11:33:15;2.55;;;1.65;;
50739;SDS011;36704;52.524;17.580;2023-09-19T11:39:25;3.83;;;1.55;;
50739;SDS011;36704;52.524;17.580;2023-09-19T11:48:43;5.68;;;2.03;;
50739;SDS011;36704;52.524;17.580;2023-09-19T11:51:37;5.45;;;1.90;;
50739;SDS011;36704;52.524;17.580;2023-09-19T11:54:32;4.57;;;1.65;;
50739;SDS011;36704;52.524;17.580;2023-09-19T11:57:20;3.45;;;1.67;;
50739;SDS011;36704;52.524;17.580;2023-09-19T12:00:06;7.10;;;1.70;;
50739;SDS011;36704;52.524;17.580;2023-09-19T12:02:56;3.28;;;1.98;;
50739;SDS011;36704;52.524;17.580;2023-09-19T12:08:33;4.38;;;1.30;;
50739;SDS011;36704;52.524;17.580;2023-09-19T12:11:20;2.72;;;1.55;;
50739;SDS011;36704;52.524;17.580;2023-09-19T12:14:20;5.03;;;1.90;;
50739;SDS011;36704;52.524;17.580;2023-09-19T12:17:08;4.47;;;1.70;;
50739;SDS011;36704;52.524;17.580;2023-09-19T12:19:55;4.50;;;1.95;;
50739;SDS011;36704;52.524;17.580;2023-09-19T12:22:45;4.97;;;1.60;;
50739;SDS011;36704;52.524;17.580;2023-09-19T12:25:44;4.00;;;1.80;;
50739;SDS011;36704;52.524;17.580;2023-09-19T12:28:37;4.20;;;2.05;;
50739;SDS011;36704;52.524;17.580;2023-09-19T12:31:27;6.57;;;1.92;;
50739;SDS011;36704;52.524;17.580;2023-09-19T12:34:16;5.68;;;2.08;;
50739;SDS011;36704;52.524;17.580;2023-09-19T12:37:10;4.40;;;2.03;;
50739;SDS011;36704;52.524;17.580;2023-09-19T12:40:09;5.60;;;1.70;;
50739;SDS011;36704;52.524;17.580;2023-09-19T12:43:03;4.80;;;1.88;;
50739;SDS011;36704;52.524;17.580;2023-09-19T12:45:51;6.78;;;2.10;;
50739;SDS011;36704;52.524;17.580;2023-09-19T12:48:38;2.60;;;1.60;;
50739;SDS011;36704;52.524;17.580;2023-09-19T12:51:34;3.95;;;1.92;;
50739;SDS011;36704;52.524;17.580;2023-09-19T12:54:20;3.38;;;1.95;;
50739;SDS011;36704;52.524;17.580;2023-09-19T12:57:07;11.27;;;2.60;;
50739;SDS011;36704;52.524;17.580;2023-09-19T12:59:53;5.47;;;2.30;;
50739;SDS011;36704;52.524;17.580;2023-09-19T13:03:09;4.15;;;2.17;;
50739;SDS011;36704;52.524;17.580;2023-09-19T13:06:04;4.07;;;2.25;;
50739;SDS011;36704;52.524;17.580;2023-09-19T13:09:04;4.63;;;2.08;;
50739;SDS011;36704;52.524;17.580;2023-09-19T13:11:53;3.80;;;2.13;;
50739;SDS011;36704;52.524;17.580;2023-09-19T13:14:39;3.17;;;2.03;;
50739;SDS011;36704;52.524;17.580;2023-09-19T13:17:42;3.50;;;2.42;;
50739;SDS011;36704;52.524;17.580;2023-09-19T13:20:32;2.17;;;1.83;;
50739;SDS011;36704;52.524;17.580;2023-09-19T13:23:28;5.85;;;2.33;;
50739;SDS011;36704;52.524;17.580;2023-09-19T13:26:14;5.38;;;2.20;;
50739;SDS011;36704;52.524;17.580;2023-09-19T13:29:00;5.57;;;2.33;;
50739;SDS011;36704;52.524;17.580;2023-09-19T13:31:50;5.75;;;2.80;;
50739;SDS011;36704;52.524;17.580;2023-09-19T13:34:38;5.63;;;2.35;;
50739;SDS011;36704;52.524;17.580;2023-09-19T13:37:24;3.92;;;2.47;;
50739;SDS011;36704;52.524;17.580;2023-09-19T13:40:12;5.43;;;2.45;;
50739;SDS011;36704;52.524;17.580;2023-09-19T13:42:59;3.78;;;2.15;;
50739;SDS011;36704;52.524;17.580;2023-09-19T13:45:45;6.00;;;2.80;;
50739;SDS011;36704;52.524;17.580;2023-09-19T13:48:30;5.50;;;2.35;;
50739;SDS011;36704;52.524;17.580;2023-09-19T13:51:16;5.28;;;2.40;;
50739;SDS011;36704;52.524;17.580;2023-09-19T13:54:04;4.88;;;2.28;;
50739;SDS011;36704;52.524;17.580;2023-09-19T13:56:51;6.45;;;2.83;;
50739;SDS011;36704;52.524;17.580;2023-09-19T13:59:37;5.57;;;2.65;;
50739;SDS011;36704;52.524;17.580;2023-09-19T14:02:23;4.90;;;2.65;;
50739;SDS011;36704;52.524;17.580;2023-09-19T14:05:11;4.20;;;2.45;;
50739;SDS011;36704;52.524;17.580;2023-09-19T14:08:00;3.70;;;2.43;;
50739;SDS011;36704;52.524;17.580;2023-09-19T14:10:48;7.50;;;2.70;;
50739;SDS011;36704;52.524;17.580;2023-09-19T14:13:35;5.53;;;2.58;;
50739;SDS011;36704;52.524;17.580;2023-09-19T14:16:22;5.10;;;2.65;;
50739;SDS011;36704;52.524;17.580;2023-09-19T14:19:10;4.57;;;2.55;;
50739;SDS011;36704;52.524;17.580;2023-09-19T14:21:56;4.15;;;2.92;;
50739;SDS011;36704;52.524;17.580;2023-09-19T14:24:42;6.45;;;2.58;;
50739;SDS011;36704;52.524;17.580;2023-09-19T14:27:29;5.32;;;2.83;;
50739;SDS011;36704;52.524;17.580;2023-09-19T14:30:15;6.50;;;2.17;;
50739;SDS011;36704;52.524;17.580;2023-09-19T14:33:02;4.75;;;2.58;;
50739;SDS011;36704;52.524;17.580;2023-09-19T14:35:49;3.95;;;2.17;;
50739;SDS011;36704;52.524;17.580;2023-09-19T14:38:36;4.78;;;2.70;;
50739;SDS011;36704;52.524;17.580;2023-09-19T14:41:23;4.40;;;2.60;;
50739;SDS011;36704;52.524;17.580;2023-09-19T14:44:11;3.95;;;2.15;;
50739;SDS011;36704;52.524;17.580;2023-09-19T14:46:58;3.70;;;2.17;;
50739;SDS011;36704;52.524;17.580;2023-09-19T14:49:44;3.53;;;2.22;;
50739;SDS011;36704;52.524;17.580;2023-09-19T14:52:30;4.20;;;2.42;;
50739;SDS011;36704;52.524;17.580;2023-09-19T14:55:16;5.85;;;2.10;;
50739;SDS011;36704;52.524;17.580;2023-09-19T14:58:03;6.85;;;2.55;;
50739;SDS011;36704;52.524;17.580;2023-09-19T15:00:49;2.85;;;1.95;;
50739;SDS011;36704;52.524;17.580;2023-09-19T15:03:41;4.15;;;2.30;;
50739;SDS011;36704;52.524;17.580;2023-09-19T15:06:32;3.55;;;2.22;;
50739;SDS011;36704;52.524;17.580;2023-09-19T15:09:18;6.40;;;2.38;;
50739;SDS011;36704;52.524;17.580;2023-09-19T15:12:04;4.43;;;1.88;;
50739;SDS011;36704;52.524;17.580;2023-09-19T15:14:50;5.35;;;3.03;;
50739;SDS011;36704;52.524;17.580;2023-09-19T15:17:38;3.22;;;2.28;;
50739;SDS011;36704;52.524;17.580;2023-09-19T15:20:24;2.78;;;2.20;;
50739;SDS011;36704;52.524;17.580;2023-09-19T15:23:11;5.90;;;2.47;;
50739;SDS011;36704;52.524;17.580;2023-09-19T15:25:59;5.25;;;2.67;;
50739;SDS011;36704;52.524;17.580;2023-09-19T15:28:48;3.80;;;2.30;;
50739;SDS011;36704;52.524;17.580;2023-09-19T15:31:36;4.65;;;2.70;;
50739;SDS011;36704;52.524;17.580;2023-09-19T15:34:23;5.13;;;2.30;;
50739;SDS011;36704;52.524;17.580;2023-09-19T15:37:10;4.55;;;2.38;;
50739;SDS011;36704;52.524;17.580;2023-09-19T15:39:57;7.70;;;2.45;;
50739;SDS011;36704;52.524;17.580;2023-09-19T15:42:43;6.35;;;2.47;;
50739;SDS011;36704;52.524;17.580;2023-09-19T15:45:29;8.13;;;2.88;;
50739;SDS011;36704;52.524;17.580;2023-09-19T15:48:15;8.05;;;2.40;;
50739;SDS011;36704;52.524;17.580;2023-09-19T15:51:03;5.95;;;2.53;;
50739;SDS011;36704;52.524;17.580;2023-09-19T15:53:50;6.35;;;2.60;;
50739;SDS011;36704;52.524;17.580;2023-09-19T15:56:39;5.18;;;2.72;;
50739;SDS011;36704;52.524;17.580;2023-09-19T15:59:27;5.07;;;2.60;;
50739;SDS011;36704;52.524;17.580;2023-09-19T16:02:14;6.80;;;2.63;;
50739;SDS011;36704;52.524;17.580;2023-09-19T16:05:00;4.88;;;2.50;;
50739;SDS011;36704;52.524;17.580;2023-09-19T16:07:47;4.20;;;2.85;;
50739;SDS011;36704;52.524;17.580;2023-09-19T16:10:34;3.83;;;2.67;;
50739;SDS011;36704;52.524;17.580;2023-09-19T16:13:22;4.72;;;2.70;;
50739;SDS011;36704;52.524;17.580;2023-09-19T16:16:08;7.85;;;3.03;;
50739;SDS011;36704;52.524;17.580;2023-09-19T16:19:01;5.17;;;2.57;;
50739;SDS011;36704;52.524;17.580;2023-09-19T16:21:49;7.95;;;2.97;;
50739;SDS011;36704;52.524;17.580;2023-09-19T16:24:36;4.82;;;2.72;;
50739;SDS011;36704;52.524;17.580;2023-09-19T16:27:23;8.32;;;2.95;;
50739;SDS011;36704;52.524;17.580;2023-09-19T16:30:10;5.50;;;3.17;;
50739;SDS011;36704;52.524;17.580;2023-09-19T16:33:00;6.68;;;2.80;;
50739;SDS011;36704;52.524;17.580;2023-09-19T16:35:48;5.25;;;3.20;;
50739;SDS011;36704;52.524;17.580;2023-09-19T16:38:34;5.28;;;2.92;;
50739;SDS011;36704;52.524;17.580;2023-09-19T16:41:21;7.55;;;3.10;;
50739;SDS011;36704;52.524;17.580;2023-09-19T16:44:09;5.68;;;2.75;;
50739;SDS011;36704;52.524;17.580;2023-09-19T16:47:00;3.78;;;2.55;;
50739;SDS011;36704;52.524;17.580;2023-09-19T16:49:50;4.47;;;2.88;;
50739;SDS011;36704;52.524;17.580;2023-09-19T16:52:39;5.85;;;2.88;;
50739;SDS011;36704;52.524;17.580;2023-09-19T16:55:28;6.50;;;3.00;;
50739;SDS011;36704;52.524;17.580;2023-09-19T16:58:14;6.13;;;2.92;;
50739;SDS011;36704;52.524;17.580;2023-09-19T17:01:08;9.82;;;3.47;;
50739;SDS011;36704;52.524;17.580;2023-09-19T17:03:59;6.10;;;3.13;;
50739;SDS011;36704;52.524;17.580;2023-09-19T17:06:49;8.70;;;2.88;;
50739;SDS011;36704;52.524;17.580;2023-09-19T17:09:35;7.50;;;3.25;;
50739;SDS011;36704;52.524;17.580;2023-09-19T17:12:22;8.02;;;3.10;;
50739;SDS011;36704;52.524;17.580;2023-09-19T17:15:09;6.25;;;3.03;;
50739;SDS011;36704;52.524;17.580;2023-09-19T17:17:56;8.02;;;3.03;;
50739;SDS011;36704;52.524;17.580;2023-09-19T17:20:44;6.68;;;3.08;;
50739;SDS011;36704;52.524;17.580;2023-09-19T17:23:30;6.07;;;3.38;;